sensor_id;sensor_type;location;lat;lon;timestamp;temperature;humidity
14401;DHT22;7285;50.894;5.462;2022-10-22T00:00:43;12.80;1.00
14401;DHT22;7285;50.894;5.462;2022-10-22T00:03:13;12.80;1.00
14401;DHT22;7285;50.894;5.462;2022-10-22T00:05:39;12.80;1.00
14401;DHT22;7285;50.894;5.462;2022-10-22T00:08:08;12.70;99.90
14401;DHT22;7285;50.894;5.462;2022-10-22T00:10:36;12.60;99.90
14401;DHT22;7285;50.894;5.462;2022-10-22T00:13:03;12.70;1.00
14401;DHT22;7285;50.894;5.462;2022-10-22T00:15:30;12.70;1.00
14401;DHT22;7285;50.894;5.462;2022-10-22T00:17:59;12.60;1.00
14401;DHT22;7285;50.894;5.462;2022-10-22T00:20:26;12.60;1.00
14401;DHT22;7285;50.894;5.462;2022-10-22T00:22:53;12.70;1.00
14401;DHT22;7285;50.894;5.462;2022-10-22T00:25:20;12.70;1.00
14401;DHT22;7285;50.894;5.462;2022-10-22T00:27:46;12.80;1.00
14401;DHT22;7285;50.894;5.462;2022-10-22T00:30:13;12.90;1.00
14401;DHT22;7285;50.894;5.462;2022-10-22T00:32:40;12.90;1.00
14401;DHT22;7285;50.894;5.462;2022-10-22T00:35:09;12.90;1.00
14401;DHT22;7285;50.894;5.462;2022-10-22T00:37:36;12.90;1.00
14401;DHT22;7285;50.894;5.462;2022-10-22T00:40:03;12.90;1.00
14401;DHT22;7285;50.894;5.462;2022-10-22T00:42:30;12.80;1.00
14401;DHT22;7285;50.894;5.462;2022-10-22T00:45:02;12.70;1.00
14401;DHT22;7285;50.894;5.462;2022-10-22T00:47:31;12.70;1.00
14401;DHT22;7285;50.894;5.462;2022-10-22T00:50:00;12.70;1.00
14401;DHT22;7285;50.894;5.462;2022-10-22T00:52:29;12.70;1.00
14401;DHT22;7285;50.894;5.462;2022-10-22T00:54:56;12.80;1.00
14401;DHT22;7285;50.894;5.462;2022-10-22T00:57:23;12.80;1.00
14401;DHT22;7285;50.894;5.462;2022-10-22T00:59:50;12.70;1.00
14401;DHT22;7285;50.894;5.462;2022-10-22T01:02:20;12.70;1.00
14401;DHT22;7285;50.894;5.462;2022-10-22T01:04:49;12.70;1.00
14401;DHT22;7285;50.894;5.462;2022-10-22T01:07:18;12.60;1.00
14401;DHT22;7285;50.894;5.462;2022-10-22T01:09:51;12.70;1.00
14401;DHT22;7285;50.894;5.462;2022-10-22T01:12:26;12.90;1.00
14401;DHT22;7285;50.894;5.462;2022-10-22T01:15:04;12.90;99.90
14401;DHT22;7285;50.894;5.462;2022-10-22T01:17:39;13.00;99.90
14401;DHT22;7285;50.894;5.462;2022-10-22T01:20:16;13.00;99.90
14401;DHT22;7285;50.894;5.462;2022-10-22T01:22:51;13.00;99.90
14401;DHT22;7285;50.894;5.462;2022-10-22T01:25:26;13.00;99.90
14401;DHT22;7285;50.894;5.462;2022-10-22T01:28:05;13.00;99.90
14401;DHT22;7285;50.894;5.462;2022-10-22T01:30:37;13.00;99.90
14401;DHT22;7285;50.894;5.462;2022-10-22T01:33:09;13.00;99.90
14401;DHT22;7285;50.894;5.462;2022-10-22T01:35:39;12.90;99.90
14401;DHT22;7285;50.894;5.462;2022-10-22T01:38:14;12.90;99.90
14401;DHT22;7285;50.894;5.462;2022-10-22T01:40:42;12.80;99.90
14401;DHT22;7285;50.894;5.462;2022-10-22T01:43:10;12.70;99.90
14401;DHT22;7285;50.894;5.462;2022-10-22T01:45:41;12.90;99.90
14401;DHT22;7285;50.894;5.462;2022-10-22T01:48:21;12.90;99.90
14401;DHT22;7285;50.894;5.462;2022-10-22T01:51:07;12.90;99.90
14401;DHT22;7285;50.894;5.462;2022-10-22T01:53:42;12.90;99.90
14401;DHT22;7285;50.894;5.462;2022-10-22T01:56:20;12.90;99.90
14401;DHT22;7285;50.894;5.462;2022-10-22T01:58:54;12.90;99.90
14401;DHT22;7285;50.894;5.462;2022-10-22T02:01:34;12.80;99.90
14401;DHT22;7285;50.894;5.462;2022-10-22T02:04:10;12.90;99.90
14401;DHT22;7285;50.894;5.462;2022-10-22T02:06:41;12.90;99.90
14401;DHT22;7285;50.894;5.462;2022-10-22T02:09:12;12.90;99.90
14401;DHT22;7285;50.894;5.462;2022-10-22T02:11:41;12.90;99.90
14401;DHT22;7285;50.894;5.462;2022-10-22T02:14:09;12.90;99.90
14401;DHT22;7285;50.894;5.462;2022-10-22T02:16:41;12.90;99.90
14401;DHT22;7285;50.894;5.462;2022-10-22T02:19:14;13.00;99.90
14401;DHT22;7285;50.894;5.462;2022-10-22T02:21:43;13.00;99.90
14401;DHT22;7285;50.894;5.462;2022-10-22T02:24:11;12.90;99.90
14401;DHT22;7285;50.894;5.462;2022-10-22T02:26:40;13.10;99.90
14401;DHT22;7285;50.894;5.462;2022-10-22T02:29:14;13.00;99.90
14401;DHT22;7285;50.894;5.462;2022-10-22T02:31:47;13.10;99.90
14401;DHT22;7285;50.894;5.462;2022-10-22T02:34:18;13.00;99.90
14401;DHT22;7285;50.894;5.462;2022-10-22T02:36:47;13.00;99.90
14401;DHT22;7285;50.894;5.462;2022-10-22T02:39:15;13.10;99.90
14401;DHT22;7285;50.894;5.462;2022-10-22T02:41:43;13.10;99.90
14401;DHT22;7285;50.894;5.462;2022-10-22T02:44:10;13.00;99.90
14401;DHT22;7285;50.894;5.462;2022-10-22T02:46:37;13.00;99.90
14401;DHT22;7285;50.894;5.462;2022-10-22T02:49:06;12.80;99.90
14401;DHT22;7285;50.894;5.462;2022-10-22T02:51:33;12.80;99.90
14401;DHT22;7285;50.894;5.462;2022-10-22T02:54:00;12.70;99.90
14401;DHT22;7285;50.894;5.462;2022-10-22T02:56:27;12.60;99.90
14401;DHT22;7285;50.894;5.462;2022-10-22T02:58:54;12.60;99.90
14401;DHT22;7285;50.894;5.462;2022-10-22T03:01:21;12.60;99.90
14401;DHT22;7285;50.894;5.462;2022-10-22T03:03:49;12.70;99.90
14401;DHT22;7285;50.894;5.462;2022-10-22T03:06:18;12.80;99.90
14401;DHT22;7285;50.894;5.462;2022-10-22T03:08:45;12.90;99.90
14401;DHT22;7285;50.894;5.462;2022-10-22T03:11:11;12.90;99.90
14401;DHT22;7285;50.894;5.462;2022-10-22T03:13:41;12.80;99.90
14401;DHT22;7285;50.894;5.462;2022-10-22T03:16:08;12.90;99.90
14401;DHT22;7285;50.894;5.462;2022-10-22T03:18:35;12.80;99.90
14401;DHT22;7285;50.894;5.462;2022-10-22T03:21:07;12.80;99.90
14401;DHT22;7285;50.894;5.462;2022-10-22T03:23:40;12.80;99.90
14401;DHT22;7285;50.894;5.462;2022-10-22T03:26:08;12.80;99.90
14401;DHT22;7285;50.894;5.462;2022-10-22T03:28:37;12.70;99.90
14401;DHT22;7285;50.894;5.462;2022-10-22T03:31:05;12.70;99.90
14401;DHT22;7285;50.894;5.462;2022-10-22T03:33:32;12.70;99.90
14401;DHT22;7285;50.894;5.462;2022-10-22T03:35:59;12.80;99.90
14401;DHT22;7285;50.894;5.462;2022-10-22T03:38:26;12.80;99.90
14401;DHT22;7285;50.894;5.462;2022-10-22T03:40:55;12.70;99.90
14401;DHT22;7285;50.894;5.462;2022-10-22T03:43:22;12.80;99.90
14401;DHT22;7285;50.894;5.462;2022-10-22T03:45:49;12.70;99.90
14401;DHT22;7285;50.894;5.462;2022-10-22T03:48:16;12.70;99.90
14401;DHT22;7285;50.894;5.462;2022-10-22T03:50:43;12.60;99.90
14401;DHT22;7285;50.894;5.462;2022-10-22T03:53:10;12.70;99.90
14401;DHT22;7285;50.894;5.462;2022-10-22T03:55:37;12.70;99.90
14401;DHT22;7285;50.894;5.462;2022-10-22T03:58:05;12.70;99.90
14401;DHT22;7285;50.894;5.462;2022-10-22T04:00:33;12.80;99.90
14401;DHT22;7285;50.894;5.462;2022-10-22T04:03:00;12.90;99.90
14401;DHT22;7285;50.894;5.462;2022-10-22T04:05:27;12.90;1.00
14401;DHT22;7285;50.894;5.462;2022-10-22T04:07:54;12.80;99.90
14401;DHT22;7285;50.894;5.462;2022-10-22T04:10:21;12.90;99.90
14401;DHT22;7285;50.894;5.462;2022-10-22T04:12:48;12.90;1.00
14401;DHT22;7285;50.894;5.462;2022-10-22T04:15:16;13.00;1.00
14401;DHT22;7285;50.894;5.462;2022-10-22T04:17:43;13.00;1.00
14401;DHT22;7285;50.894;5.462;2022-10-22T04:20:10;12.90;1.00
14401;DHT22;7285;50.894;5.462;2022-10-22T04:22:37;12.90;1.00
14401;DHT22;7285;50.894;5.462;2022-10-22T04:25:04;12.90;99.90
14401;DHT22;7285;50.894;5.462;2022-10-22T04:27:32;12.90;1.00
14401;DHT22;7285;50.894;5.462;2022-10-22T04:29:59;13.00;1.00
14401;DHT22;7285;50.894;5.462;2022-10-22T04:32:27;13.00;1.00
14401;DHT22;7285;50.894;5.462;2022-10-22T04:34:54;13.10;1.00
14401;DHT22;7285;50.894;5.462;2022-10-22T04:37:21;13.20;1.00
14401;DHT22;7285;50.894;5.462;2022-10-22T04:39:48;13.10;1.00
14401;DHT22;7285;50.894;5.462;2022-10-22T04:42:15;13.10;99.90
14401;DHT22;7285;50.894;5.462;2022-10-22T04:44:42;13.20;99.90
14401;DHT22;7285;50.894;5.462;2022-10-22T04:47:08;13.20;99.90
14401;DHT22;7285;50.894;5.462;2022-10-22T04:49:37;13.10;99.90
14401;DHT22;7285;50.894;5.462;2022-10-22T04:52:04;13.10;99.90
14401;DHT22;7285;50.894;5.462;2022-10-22T04:54:31;13.20;99.90
14401;DHT22;7285;50.894;5.462;2022-10-22T04:56:57;13.20;99.90
14401;DHT22;7285;50.894;5.462;2022-10-22T04:59:24;13.20;99.90
14401;DHT22;7285;50.894;5.462;2022-10-22T05:01:51;13.30;99.90
14401;DHT22;7285;50.894;5.462;2022-10-22T05:04:18;13.30;1.00
14401;DHT22;7285;50.894;5.462;2022-10-22T05:06:46;13.30;1.00
14401;DHT22;7285;50.894;5.462;2022-10-22T05:09:15;13.40;1.00
14401;DHT22;7285;50.894;5.462;2022-10-22T05:11:44;13.50;1.00
14401;DHT22;7285;50.894;5.462;2022-10-22T05:14:14;13.50;1.00
14401;DHT22;7285;50.894;5.462;2022-10-22T05:16:41;13.50;99.90
14401;DHT22;7285;50.894;5.462;2022-10-22T05:19:15;13.50;99.90
14401;DHT22;7285;50.894;5.462;2022-10-22T05:21:42;13.50;99.90
14401;DHT22;7285;50.894;5.462;2022-10-22T05:24:11;13.60;1.00
14401;DHT22;7285;50.894;5.462;2022-10-22T05:26:38;13.60;1.00
14401;DHT22;7285;50.894;5.462;2022-10-22T05:29:05;13.60;1.00
14401;DHT22;7285;50.894;5.462;2022-10-22T05:31:32;13.60;99.90
14401;DHT22;7285;50.894;5.462;2022-10-22T05:33:58;13.60;99.90
14401;DHT22;7285;50.894;5.462;2022-10-22T05:36:25;13.60;1.00
14401;DHT22;7285;50.894;5.462;2022-10-22T05:38:53;13.50;1.00
14401;DHT22;7285;50.894;5.462;2022-10-22T05:41:22;13.60;99.90
14401;DHT22;7285;50.894;5.462;2022-10-22T05:43:50;13.60;1.00
14401;DHT22;7285;50.894;5.462;2022-10-22T05:46:19;13.50;1.00
14401;DHT22;7285;50.894;5.462;2022-10-22T05:48:48;13.50;1.00
14401;DHT22;7285;50.894;5.462;2022-10-22T05:51:15;13.60;99.90
14401;DHT22;7285;50.894;5.462;2022-10-22T05:53:42;13.50;1.00
14401;DHT22;7285;50.894;5.462;2022-10-22T05:56:13;13.50;1.00
14401;DHT22;7285;50.894;5.462;2022-10-22T05:58:41;13.40;1.00
14401;DHT22;7285;50.894;5.462;2022-10-22T06:01:11;13.40;1.00
14401;DHT22;7285;50.894;5.462;2022-10-22T06:03:38;13.40;1.00
14401;DHT22;7285;50.894;5.462;2022-10-22T06:06:14;13.40;1.00
14401;DHT22;7285;50.894;5.462;2022-10-22T06:08:42;13.40;1.00
14401;DHT22;7285;50.894;5.462;2022-10-22T06:11:09;13.30;99.90
14401;DHT22;7285;50.894;5.462;2022-10-22T06:13:36;13.30;99.90
14401;DHT22;7285;50.894;5.462;2022-10-22T06:16:05;13.30;99.90
14401;DHT22;7285;50.894;5.462;2022-10-22T06:18:32;13.20;99.90
14401;DHT22;7285;50.894;5.462;2022-10-22T06:21:03;13.30;99.90
14401;DHT22;7285;50.894;5.462;2022-10-22T06:23:30;13.30;1.00
14401;DHT22;7285;50.894;5.462;2022-10-22T06:25:57;13.20;1.00
14401;DHT22;7285;50.894;5.462;2022-10-22T06:28:24;13.30;1.00
14401;DHT22;7285;50.894;5.462;2022-10-22T06:30:51;13.30;1.00
14401;DHT22;7285;50.894;5.462;2022-10-22T06:33:20;13.40;1.00
14401;DHT22;7285;50.894;5.462;2022-10-22T06:35:46;13.30;99.90
14401;DHT22;7285;50.894;5.462;2022-10-22T06:38:13;13.40;99.90
14401;DHT22;7285;50.894;5.462;2022-10-22T06:40:40;13.50;1.00
14401;DHT22;7285;50.894;5.462;2022-10-22T06:43:08;13.50;1.00
14401;DHT22;7285;50.894;5.462;2022-10-22T06:45:35;13.50;99.90
14401;DHT22;7285;50.894;5.462;2022-10-22T06:48:02;13.50;99.90
14401;DHT22;7285;50.894;5.462;2022-10-22T06:50:30;13.50;18.90
14401;DHT22;7285;50.894;5.462;2022-10-22T06:52:59;13.50;99.90
14401;DHT22;7285;50.894;5.462;2022-10-22T06:55:26;13.50;77.10
14401;DHT22;7285;50.894;5.462;2022-10-22T06:57:54;13.40;99.90
14401;DHT22;7285;50.894;5.462;2022-10-22T07:00:21;13.40;99.90
14401;DHT22;7285;50.894;5.462;2022-10-22T07:02:50;13.50;1.00
14401;DHT22;7285;50.894;5.462;2022-10-22T07:05:18;13.50;99.90
14401;DHT22;7285;50.894;5.462;2022-10-22T07:07:47;13.50;99.90
14401;DHT22;7285;50.894;5.462;2022-10-22T07:10:14;13.60;99.90
14401;DHT22;7285;50.894;5.462;2022-10-22T07:12:41;13.70;1.00
14401;DHT22;7285;50.894;5.462;2022-10-22T07:15:08;13.80;1.00
14401;DHT22;7285;50.894;5.462;2022-10-22T07:17:35;14.00;1.00
14401;DHT22;7285;50.894;5.462;2022-10-22T07:20:03;14.10;1.00
14401;DHT22;7285;50.894;5.462;2022-10-22T07:22:30;14.20;99.90
14401;DHT22;7285;50.894;5.462;2022-10-22T07:24:58;14.30;1.00
14401;DHT22;7285;50.894;5.462;2022-10-22T07:27:25;14.40;1.00
14401;DHT22;7285;50.894;5.462;2022-10-22T07:29:52;14.30;1.00
14401;DHT22;7285;50.894;5.462;2022-10-22T07:32:19;14.40;99.90
14401;DHT22;7285;50.894;5.462;2022-10-22T07:34:46;14.50;95.90
14401;DHT22;7285;50.894;5.462;2022-10-22T07:37:12;14.40;99.90
14401;DHT22;7285;50.894;5.462;2022-10-22T07:39:39;14.40;99.90
14401;DHT22;7285;50.894;5.462;2022-10-22T07:42:07;14.50;95.90
14401;DHT22;7285;50.894;5.462;2022-10-22T07:44:34;14.50;1.00
14401;DHT22;7285;50.894;5.462;2022-10-22T07:47:01;14.60;1.00
14401;DHT22;7285;50.894;5.462;2022-10-22T07:49:28;14.60;1.00
14401;DHT22;7285;50.894;5.462;2022-10-22T07:51:55;14.60;1.00
14401;DHT22;7285;50.894;5.462;2022-10-22T07:54:22;14.70;99.90
14401;DHT22;7285;50.894;5.462;2022-10-22T07:56:49;14.70;1.00
14401;DHT22;7285;50.894;5.462;2022-10-22T07:59:17;14.70;1.00
14401;DHT22;7285;50.894;5.462;2022-10-22T08:01:44;14.80;99.90
14401;DHT22;7285;50.894;5.462;2022-10-22T08:04:11;14.80;99.90
14401;DHT22;7285;50.894;5.462;2022-10-22T08:06:38;14.80;99.90
14401;DHT22;7285;50.894;5.462;2022-10-22T08:09:05;14.90;99.90
14401;DHT22;7285;50.894;5.462;2022-10-22T08:11:32;14.90;99.90
14401;DHT22;7285;50.894;5.462;2022-10-22T08:13:59;14.90;99.90
14401;DHT22;7285;50.894;5.462;2022-10-22T08:16:28;14.90;99.90
14401;DHT22;7285;50.894;5.462;2022-10-22T08:18:55;15.00;86.50
14401;DHT22;7285;50.894;5.462;2022-10-22T08:21:22;15.00;34.00
14401;DHT22;7285;50.894;5.462;2022-10-22T08:23:49;15.00;99.90
14401;DHT22;7285;50.894;5.462;2022-10-22T08:26:16;15.00;29.90
14401;DHT22;7285;50.894;5.462;2022-10-22T08:28:43;15.10;1.00
14401;DHT22;7285;50.894;5.462;2022-10-22T08:31:09;15.10;1.00
14401;DHT22;7285;50.894;5.462;2022-10-22T08:33:38;15.20;1.00
14401;DHT22;7285;50.894;5.462;2022-10-22T08:36:06;15.20;1.00
14401;DHT22;7285;50.894;5.462;2022-10-22T08:38:33;15.20;1.00
14401;DHT22;7285;50.894;5.462;2022-10-22T08:41:07;15.30;1.00
14401;DHT22;7285;50.894;5.462;2022-10-22T08:43:45;15.30;1.00
14401;DHT22;7285;50.894;5.462;2022-10-22T08:46:23;15.40;1.00
14401;DHT22;7285;50.894;5.462;2022-10-22T08:48:54;15.50;99.90
14401;DHT22;7285;50.894;5.462;2022-10-22T08:51:23;15.60;99.90
14401;DHT22;7285;50.894;5.462;2022-10-22T08:54:05;15.60;99.90
14401;DHT22;7285;50.894;5.462;2022-10-22T08:56:35;15.60;99.90
14401;DHT22;7285;50.894;5.462;2022-10-22T08:59:09;15.60;1.00
14401;DHT22;7285;50.894;5.462;2022-10-22T09:01:42;15.60;6.50
14401;DHT22;7285;50.894;5.462;2022-10-22T09:04:16;15.70;1.00
14401;DHT22;7285;50.894;5.462;2022-10-22T09:06:50;15.70;1.00
14401;DHT22;7285;50.894;5.462;2022-10-22T09:09:17;15.70;1.00
14401;DHT22;7285;50.894;5.462;2022-10-22T09:11:47;15.80;1.00
14401;DHT22;7285;50.894;5.462;2022-10-22T09:14:18;15.80;1.00
14401;DHT22;7285;50.894;5.462;2022-10-22T09:17:04;15.90;1.00
14401;DHT22;7285;50.894;5.462;2022-10-22T09:19:45;15.80;1.00
14401;DHT22;7285;50.894;5.462;2022-10-22T09:22:22;15.90;1.00
14401;DHT22;7285;50.894;5.462;2022-10-22T09:24:57;15.90;1.00
14401;DHT22;7285;50.894;5.462;2022-10-22T09:27:27;16.00;1.00
14401;DHT22;7285;50.894;5.462;2022-10-22T09:29:55;16.00;1.00
14401;DHT22;7285;50.894;5.462;2022-10-22T09:32:26;16.10;1.00
14401;DHT22;7285;50.894;5.462;2022-10-22T09:34:56;16.10;1.00
14401;DHT22;7285;50.894;5.462;2022-10-22T09:37:27;16.10;99.90
14401;DHT22;7285;50.894;5.462;2022-10-22T09:39:56;16.20;99.90
14401;DHT22;7285;50.894;5.462;2022-10-22T09:42:24;16.30;99.90
14401;DHT22;7285;50.894;5.462;2022-10-22T09:44:52;16.40;99.90
14401;DHT22;7285;50.894;5.462;2022-10-22T09:47:33;16.40;99.90
14401;DHT22;7285;50.894;5.462;2022-10-22T09:50:19;16.40;99.90
14401;DHT22;7285;50.894;5.462;2022-10-22T09:52:56;16.50;99.90
14401;DHT22;7285;50.894;5.462;2022-10-22T09:55:24;16.50;99.90
14401;DHT22;7285;50.894;5.462;2022-10-22T09:57:55;16.60;99.90
14401;DHT22;7285;50.894;5.462;2022-10-22T10:00:23;16.60;30.00
14401;DHT22;7285;50.894;5.462;2022-10-22T10:02:54;16.70;93.30
14401;DHT22;7285;50.894;5.462;2022-10-22T10:05:28;16.70;36.70
14401;DHT22;7285;50.894;5.462;2022-10-22T10:08:01;16.70;71.80
14401;DHT22;7285;50.894;5.462;2022-10-22T10:10:37;16.80;10.30
14401;DHT22;7285;50.894;5.462;2022-10-22T10:13:22;16.80;1.00
14401;DHT22;7285;50.894;5.462;2022-10-22T10:15:57;16.80;1.00
14401;DHT22;7285;50.894;5.462;2022-10-22T10:18:33;16.90;7.80
14401;DHT22;7285;50.894;5.462;2022-10-22T10:21:09;16.90;1.00
14401;DHT22;7285;50.894;5.462;2022-10-22T10:23:45;17.00;1.00
14401;DHT22;7285;50.894;5.462;2022-10-22T10:26:20;17.00;1.00
14401;DHT22;7285;50.894;5.462;2022-10-22T10:28:58;17.00;1.00
14401;DHT22;7285;50.894;5.462;2022-10-22T10:31:38;17.00;1.00
14401;DHT22;7285;50.894;5.462;2022-10-22T10:34:16;17.10;1.00
14401;DHT22;7285;50.894;5.462;2022-10-22T10:36:58;17.20;1.00
14401;DHT22;7285;50.894;5.462;2022-10-22T10:39:40;17.20;1.00
14401;DHT22;7285;50.894;5.462;2022-10-22T10:42:20;17.30;1.00
14401;DHT22;7285;50.894;5.462;2022-10-22T10:45:00;17.40;1.00
14401;DHT22;7285;50.894;5.462;2022-10-22T10:48:00;17.70;1.00
14401;DHT22;7285;50.894;5.462;2022-10-22T10:50:41;17.90;1.00
14401;DHT22;7285;50.894;5.462;2022-10-22T10:53:19;18.00;1.00
14401;DHT22;7285;50.894;5.462;2022-10-22T10:55:58;18.10;1.00
14401;DHT22;7285;50.894;5.462;2022-10-22T10:58:33;18.10;1.00
14401;DHT22;7285;50.894;5.462;2022-10-22T11:01:08;18.20;1.00
14401;DHT22;7285;50.894;5.462;2022-10-22T11:03:47;18.30;1.00
14401;DHT22;7285;50.894;5.462;2022-10-22T11:06:18;18.30;1.00
14401;DHT22;7285;50.894;5.462;2022-10-22T11:08:52;18.30;99.90
14401;DHT22;7285;50.894;5.462;2022-10-22T11:11:24;18.30;99.90
14401;DHT22;7285;50.894;5.462;2022-10-22T11:13:56;18.50;99.90
14401;DHT22;7285;50.894;5.462;2022-10-22T11:16:29;18.60;1.00
14401;DHT22;7285;50.894;5.462;2022-10-22T11:19:04;18.50;99.90
14401;DHT22;7285;50.894;5.462;2022-10-22T11:21:37;19.20;99.90
14401;DHT22;7285;50.894;5.462;2022-10-22T11:24:12;19.90;99.90
14401;DHT22;7285;50.894;5.462;2022-10-22T11:26:45;20.10;99.90
14401;DHT22;7285;50.894;5.462;2022-10-22T11:29:16;20.60;99.90
14401;DHT22;7285;50.894;5.462;2022-10-22T11:31:44;20.90;99.90
14401;DHT22;7285;50.894;5.462;2022-10-22T11:34:17;20.70;99.90
14401;DHT22;7285;50.894;5.462;2022-10-22T11:36:45;21.40;99.90
14401;DHT22;7285;50.894;5.462;2022-10-22T11:39:43;21.70;99.90
14401;DHT22;7285;50.894;5.462;2022-10-22T11:42:15;22.30;85.00
14401;DHT22;7285;50.894;5.462;2022-10-22T11:44:49;22.40;72.70
14401;DHT22;7285;50.894;5.462;2022-10-22T11:47:24;21.30;51.90
14401;DHT22;7285;50.894;5.462;2022-10-22T11:49:57;20.60;75.40
14401;DHT22;7285;50.894;5.462;2022-10-22T11:52:27;20.20;99.90
14401;DHT22;7285;50.894;5.462;2022-10-22T11:55:30;20.90;99.90
14401;DHT22;7285;50.894;5.462;2022-10-22T11:57:59;21.10;80.30
14401;DHT22;7285;50.894;5.462;2022-10-22T12:00:40;21.40;97.00
14401;DHT22;7285;50.894;5.462;2022-10-22T12:03:16;20.70;24.50
14401;DHT22;7285;50.894;5.462;2022-10-22T12:05:45;20.00;18.10
14401;DHT22;7285;50.894;5.462;2022-10-22T12:08:21;19.90;73.90
14401;DHT22;7285;50.894;5.462;2022-10-22T12:11:05;19.80;51.50
14401;DHT22;7285;50.894;5.462;2022-10-22T12:16:37;19.40;99.90
14401;DHT22;7285;50.894;5.462;2022-10-22T12:19:13;19.20;99.90
14401;DHT22;7285;50.894;5.462;2022-10-22T12:21:42;19.00;99.90
14401;DHT22;7285;50.894;5.462;2022-10-22T12:24:12;19.10;99.90
14401;DHT22;7285;50.894;5.462;2022-10-22T12:26:41;19.70;99.90
14401;DHT22;7285;50.894;5.462;2022-10-22T12:29:12;19.80;99.90
14401;DHT22;7285;50.894;5.462;2022-10-22T12:31:41;20.10;99.90
14401;DHT22;7285;50.894;5.462;2022-10-22T12:34:13;20.30;99.90
14401;DHT22;7285;50.894;5.462;2022-10-22T12:36:40;20.70;99.90
14401;DHT22;7285;50.894;5.462;2022-10-22T12:39:11;20.20;99.90
14401;DHT22;7285;50.894;5.462;2022-10-22T12:41:38;20.00;99.90
14401;DHT22;7285;50.894;5.462;2022-10-22T12:44:09;20.60;99.90
14401;DHT22;7285;50.894;5.462;2022-10-22T12:46:37;21.50;95.30
14401;DHT22;7285;50.894;5.462;2022-10-22T12:49:07;21.40;21.90
14401;DHT22;7285;50.894;5.462;2022-10-22T12:51:36;21.00;36.90
14401;DHT22;7285;50.894;5.462;2022-10-22T12:54:06;20.50;1.00
14401;DHT22;7285;50.894;5.462;2022-10-22T12:56:35;20.30;1.00
14401;DHT22;7285;50.894;5.462;2022-10-22T12:59:05;21.20;12.20
14401;DHT22;7285;50.894;5.462;2022-10-22T13:01:36;20.80;1.00
14401;DHT22;7285;50.894;5.462;2022-10-22T13:04:12;21.60;1.00
14401;DHT22;7285;50.894;5.462;2022-10-22T13:06:44;22.50;1.00
14401;DHT22;7285;50.894;5.462;2022-10-22T13:09:15;21.20;1.00
14401;DHT22;7285;50.894;5.462;2022-10-22T13:11:50;22.20;1.00
14401;DHT22;7285;50.894;5.462;2022-10-22T13:14:26;22.00;1.00
14401;DHT22;7285;50.894;5.462;2022-10-22T13:17:06;22.40;1.00
14401;DHT22;7285;50.894;5.462;2022-10-22T13:19:46;23.80;1.00
14401;DHT22;7285;50.894;5.462;2022-10-22T13:22:25;24.30;1.00
14401;DHT22;7285;50.894;5.462;2022-10-22T13:24:52;23.70;1.00
14401;DHT22;7285;50.894;5.462;2022-10-22T13:27:21;23.40;1.00
14401;DHT22;7285;50.894;5.462;2022-10-22T13:29:48;23.00;1.00
14401;DHT22;7285;50.894;5.462;2022-10-22T13:32:27;22.90;1.00
14401;DHT22;7285;50.894;5.462;2022-10-22T13:34:57;22.70;1.00
14401;DHT22;7285;50.894;5.462;2022-10-22T13:37:25;23.30;1.00
14401;DHT22;7285;50.894;5.462;2022-10-22T13:39:53;23.30;1.00
14401;DHT22;7285;50.894;5.462;2022-10-22T13:42:20;23.40;1.00
14401;DHT22;7285;50.894;5.462;2022-10-22T13:44:47;23.40;1.00
14401;DHT22;7285;50.894;5.462;2022-10-22T13:47:24;23.40;1.00
14401;DHT22;7285;50.894;5.462;2022-10-22T13:49:52;23.30;1.00
14401;DHT22;7285;50.894;5.462;2022-10-22T13:52:34;23.00;1.00
14401;DHT22;7285;50.894;5.462;2022-10-22T13:55:08;22.60;1.00
14401;DHT22;7285;50.894;5.462;2022-10-22T13:57:38;22.50;1.00
14401;DHT22;7285;50.894;5.462;2022-10-22T14:00:07;22.40;1.00
14401;DHT22;7285;50.894;5.462;2022-10-22T14:02:36;22.60;1.00
14401;DHT22;7285;50.894;5.462;2022-10-22T14:05:04;22.20;1.00
14401;DHT22;7285;50.894;5.462;2022-10-22T14:07:34;22.20;1.00
14401;DHT22;7285;50.894;5.462;2022-10-22T14:10:01;22.40;1.00
14401;DHT22;7285;50.894;5.462;2022-10-22T14:12:28;22.30;1.00
14401;DHT22;7285;50.894;5.462;2022-10-22T14:14:54;22.30;1.00
14401;DHT22;7285;50.894;5.462;2022-10-22T14:17:21;22.10;1.00
14401;DHT22;7285;50.894;5.462;2022-10-22T14:19:50;22.00;1.00
14401;DHT22;7285;50.894;5.462;2022-10-22T14:22:18;21.90;1.00
14401;DHT22;7285;50.894;5.462;2022-10-22T14:24:45;21.50;1.00
14401;DHT22;7285;50.894;5.462;2022-10-22T14:27:14;20.90;1.00
14401;DHT22;7285;50.894;5.462;2022-10-22T14:29:41;20.60;1.00
14401;DHT22;7285;50.894;5.462;2022-10-22T14:32:12;20.30;1.00
14401;DHT22;7285;50.894;5.462;2022-10-22T14:34:39;20.30;1.00
14401;DHT22;7285;50.894;5.462;2022-10-22T14:37:15;20.20;1.00
14401;DHT22;7285;50.894;5.462;2022-10-22T14:39:43;20.20;1.00
14401;DHT22;7285;50.894;5.462;2022-10-22T14:42:11;20.10;1.00
14401;DHT22;7285;50.894;5.462;2022-10-22T14:44:38;19.80;1.00
14401;DHT22;7285;50.894;5.462;2022-10-22T14:47:05;19.50;2.90
14401;DHT22;7285;50.894;5.462;2022-10-22T14:49:32;19.40;4.80
14401;DHT22;7285;50.894;5.462;2022-10-22T14:51:59;19.30;35.40
14401;DHT22;7285;50.894;5.462;2022-10-22T14:54:27;19.20;46.90
14401;DHT22;7285;50.894;5.462;2022-10-22T14:56:54;19.20;97.90
14401;DHT22;7285;50.894;5.462;2022-10-22T14:59:23;19.10;99.90
14401;DHT22;7285;50.894;5.462;2022-10-22T15:01:50;19.10;99.90
14401;DHT22;7285;50.894;5.462;2022-10-22T15:04:17;19.20;99.90
14401;DHT22;7285;50.894;5.462;2022-10-22T15:06:44;19.20;99.90
14401;DHT22;7285;50.894;5.462;2022-10-22T15:09:11;19.20;99.70
14401;DHT22;7285;50.894;5.462;2022-10-22T15:11:39;19.10;99.90
14401;DHT22;7285;50.894;5.462;2022-10-22T15:14:07;19.40;99.90
14401;DHT22;7285;50.894;5.462;2022-10-22T15:16:34;19.70;99.90
14401;DHT22;7285;50.894;5.462;2022-10-22T15:19:05;19.30;99.90
14401;DHT22;7285;50.894;5.462;2022-10-22T15:21:32;19.30;99.90
14401;DHT22;7285;50.894;5.462;2022-10-22T15:24:00;19.20;99.90
14401;DHT22;7285;50.894;5.462;2022-10-22T15:26:26;19.10;99.90
14401;DHT22;7285;50.894;5.462;2022-10-22T15:28:55;18.90;99.90
14401;DHT22;7285;50.894;5.462;2022-10-22T15:31:44;18.90;99.90
14401;DHT22;7285;50.894;5.462;2022-10-22T15:34:11;18.80;99.90
14401;DHT22;7285;50.894;5.462;2022-10-22T15:36:38;18.80;99.90
14401;DHT22;7285;50.894;5.462;2022-10-22T15:39:08;18.70;99.90
14401;DHT22;7285;50.894;5.462;2022-10-22T15:41:35;18.60;99.90
14401;DHT22;7285;50.894;5.462;2022-10-22T15:44:04;18.50;99.90
14401;DHT22;7285;50.894;5.462;2022-10-22T15:46:32;18.40;99.90
14401;DHT22;7285;50.894;5.462;2022-10-22T15:48:59;18.30;99.90
14401;DHT22;7285;50.894;5.462;2022-10-22T15:51:26;18.10;99.90
14401;DHT22;7285;50.894;5.462;2022-10-22T15:53:54;18.10;99.90
14401;DHT22;7285;50.894;5.462;2022-10-22T15:56:23;18.00;99.90
14401;DHT22;7285;50.894;5.462;2022-10-22T15:58:52;17.90;99.90
14401;DHT22;7285;50.894;5.462;2022-10-22T16:01:20;17.90;99.90
14401;DHT22;7285;50.894;5.462;2022-10-22T16:03:49;17.80;99.90
14401;DHT22;7285;50.894;5.462;2022-10-22T16:06:17;17.70;99.90
14401;DHT22;7285;50.894;5.462;2022-10-22T16:08:44;17.60;1.00
14401;DHT22;7285;50.894;5.462;2022-10-22T16:11:10;17.50;1.00
14401;DHT22;7285;50.894;5.462;2022-10-22T16:13:37;17.40;1.00